createdAt,value
2018-02-10T00:01:56.089Z,57.00
2018-02-10T00:04:26.279Z,57.00
2018-02-10T00:06:55.698Z,57.10
2018-02-10T00:09:25.108Z,56.80
2018-02-10T00:11:54.500Z,57.00
2018-02-10T00:14:23.919Z,57.40
2018-02-10T00:16:53.334Z,57.30
2018-02-10T00:19:22.737Z,57.30
2018-02-10T00:21:52.171Z,57.30
2018-02-10T00:24:21.744Z,57.30
2018-02-10T00:26:51.912Z,57.50
2018-02-10T00:29:21.336Z,57.50
2018-02-10T00:31:50.753Z,57.40
2018-02-10T00:34:20.165Z,57.60
2018-02-10T00:36:49.391Z,57.60
2018-02-10T00:39:18.792Z,57.70
2018-02-10T00:41:48.220Z,57.60
2018-02-10T00:44:17.353Z,57.50
2018-02-10T00:46:46.783Z,57.60
2018-02-10T00:49:17.697Z,57.60
2018-02-10T00:51:47.126Z,57.70
2018-02-10T00:54:16.543Z,57.70
2018-02-10T00:56:45.999Z,57.60
2018-02-10T00:59:15.431Z,57.40
2018-02-10T01:01:45.624Z,57.40
2018-02-10T01:04:15.047Z,57.40
2018-02-10T01:06:44.489Z,57.40
2018-02-10T01:09:13.960Z,57.30
2018-02-10T01:11:43.381Z,57.20
2018-02-10T01:14:12.804Z,57.80
2018-02-10T01:16:42.233Z,57.60
2018-02-10T01:19:11.651Z,57.60
2018-02-10T01:21:41.043Z,57.80
2018-02-10T01:24:10.453Z,58.00
2018-02-10T01:26:39.867Z,57.80
2018-02-10T01:29:09.268Z,57.70
2018-02-10T01:31:38.671Z,57.50
2018-02-10T01:34:08.846Z,57.80
2018-02-10T01:36:38.254Z,57.70
2018-02-10T01:39:07.666Z,58.00
2018-02-10T01:41:37.079Z,58.00
2018-02-10T01:44:06.159Z,57.60
2018-02-10T01:46:36.323Z,57.70
2018-02-10T01:49:05.740Z,57.70
2018-02-10T01:51:35.142Z,57.60
2018-02-10T01:54:04.556Z,57.60
2018-02-10T01:56:33.686Z,57.80
2018-02-10T01:59:02.772Z,58.10
2018-02-10T02:01:32.179Z,58.10
2018-02-10T02:04:01.598Z,57.70
2018-02-10T02:06:30.996Z,57.80
2018-02-10T02:09:01.184Z,57.60
2018-02-10T02:11:30.315Z,57.60
2018-02-10T02:13:59.723Z,57.70
2018-02-10T02:16:30.075Z,58.00
2018-02-10T02:19:00.240Z,58.10
2018-02-10T02:21:29.659Z,58.10
2018-02-10T02:23:59.079Z,58.10
2018-02-10T02:26:28.509Z,58.40
2018-02-10T02:28:57.903Z,58.30
2018-02-10T02:31:27.343Z,58.10
2018-02-10T02:33:56.758Z,57.80
2018-02-10T02:36:26.166Z,57.80
2018-02-10T02:38:55.564Z,57.70
2018-02-10T02:41:24.703Z,57.90
2018-02-10T02:43:54.097Z,57.90
2018-02-10T02:46:23.511Z,58.00
2018-02-10T02:48:52.924Z,57.90
2018-02-10T02:51:22.325Z,57.90
2018-02-10T02:53:51.744Z,57.90
2018-02-10T02:56:21.145Z,58.30
2018-02-10T02:58:51.328Z,58.30
2018-02-10T03:01:20.733Z,58.30
2018-02-10T03:03:49.863Z,58.80
2018-02-10T03:06:19.266Z,58.40
2018-02-10T03:08:48.363Z,58.50
2018-02-10T03:11:17.784Z,58.80
2018-02-10T03:13:47.213Z,58.80
2018-02-10T03:16:16.628Z,59.00
2018-02-10T03:18:47.560Z,59.00
2018-02-10T03:21:17.042Z,58.90
2018-02-10T03:23:47.208Z,58.90
2018-02-10T03:26:16.817Z,59.20
2018-02-10T03:28:46.232Z,59.20
2018-02-10T03:31:15.653Z,59.30
2018-02-10T03:33:45.072Z,59.40
2018-02-10T03:36:14.498Z,59.40
2018-02-10T03:38:43.925Z,59.60
2018-02-10T03:41:13.358Z,59.50
2018-02-10T03:43:42.082Z,59.50
2018-02-10T03:46:12.255Z,59.80
2018-02-10T03:48:41.663Z,59.70
2018-02-10T03:51:11.092Z,59.60
2018-02-10T03:53:40.489Z,59.80
2018-02-10T03:56:09.917Z,59.50
2018-02-10T03:58:39.319Z,59.70
2018-02-10T04:01:08.720Z,59.50
2018-02-10T04:03:38.139Z,59.80
2018-02-10T04:06:07.615Z,59.70
2018-02-10T04:08:37.132Z,60.10
2018-02-10T04:11:07.303Z,60.50
2018-02-10T04:13:36.715Z,59.70
2018-02-10T04:16:06.130Z,59.70
2018-02-10T04:18:35.259Z,60.00
2018-02-10T04:21:04.675Z,60.70
2018-02-10T04:23:34.091Z,59.90
2018-02-10T04:26:03.483Z,59.80
2018-02-10T04:28:32.913Z,59.70
2018-02-10T04:31:02.314Z,59.60
2018-02-10T04:33:31.732Z,59.40
2018-02-10T04:36:01.148Z,59.50
2018-02-10T04:38:30.585Z,59.40
2018-02-10T04:40:59.987Z,59.50
2018-02-10T04:43:29.403Z,59.40
2018-02-10T04:45:58.823Z,59.60
2018-02-10T04:48:28.232Z,59.60
2018-02-10T04:50:57.672Z,59.50
2018-02-10T04:53:27.104Z,59.80
2018-02-10T04:55:56.510Z,59.80
2018-02-10T04:58:25.912Z,59.70
2018-02-10T05:00:55.323Z,59.30
2018-02-10T05:03:24.739Z,59.20
2018-02-10T05:05:54.155Z,59.50
2018-02-10T05:08:23.557Z,59.40
2018-02-10T05:10:52.979Z,60.20
2018-02-10T05:13:22.371Z,59.40
2018-02-10T05:15:51.777Z,59.30
2018-02-10T05:18:21.189Z,59.20
2018-02-10T05:20:50.596Z,59.40
2018-02-10T05:23:20.021Z,59.50
2018-02-10T05:25:49.419Z,59.30
2018-02-10T05:28:19.602Z,59.50
2018-02-10T05:30:49.011Z,59.50
2018-02-10T05:33:18.418Z,59.50
2018-02-10T05:35:47.893Z,59.60
2018-02-10T05:38:18.060Z,59.70
2018-02-10T05:40:47.486Z,59.70
2018-02-10T05:43:16.909Z,59.80
2018-02-10T05:45:46.316Z,59.80
2018-02-10T05:48:15.733Z,60.00
2018-02-10T05:50:45.248Z,60.10
2018-02-10T05:53:14.635Z,60.00
2018-02-10T05:55:44.082Z,60.00
2018-02-10T05:58:13.506Z,59.90
2018-02-10T06:00:42.903Z,60.20
2018-02-10T06:03:12.327Z,60.00
2018-02-10T06:05:41.736Z,59.60
2018-02-10T06:08:11.149Z,59.60
2018-02-10T06:10:40.552Z,59.80
2018-02-10T06:13:09.966Z,59.70
2018-02-10T06:15:39.388Z,59.80
2018-02-10T06:18:08.800Z,59.60
2018-02-10T06:20:38.212Z,59.70
2018-02-10T06:23:07.615Z,59.70
2018-02-10T06:25:36.701Z,59.70
2018-02-10T06:28:06.871Z,59.70
2018-02-10T06:30:36.280Z,59.70
2018-02-10T06:33:05.675Z,59.60
2018-02-10T06:35:35.860Z,59.50
2018-02-10T06:38:05.463Z,59.50
2018-02-10T06:40:34.871Z,59.50
2018-02-10T06:43:04.300Z,60.40
2018-02-10T06:45:33.763Z,59.90
2018-02-10T06:48:03.157Z,60.60
2018-02-10T06:50:32.567Z,60.10
2018-02-10T06:53:01.980Z,60.20
2018-02-10T06:55:31.400Z,60.10
2018-02-10T06:58:00.816Z,60.00
2018-02-10T07:00:30.235Z,60.20
2018-02-10T07:02:59.664Z,59.90
2018-02-10T07:05:29.848Z,59.80
2018-02-10T07:07:59.267Z,59.80
2018-02-10T07:10:28.663Z,59.90
2018-02-10T07:12:58.084Z,59.90
2018-02-10T07:15:27.496Z,59.90
2018-02-10T07:17:56.986Z,60.00
2018-02-10T07:20:27.992Z,60.40
2018-02-10T07:22:57.416Z,60.40
2018-02-10T07:25:26.829Z,60.40
2018-02-10T07:27:56.244Z,60.50
2018-02-10T07:30:25.667Z,60.20
2018-02-10T07:32:55.084Z,60.10
2018-02-10T07:35:24.505Z,60.00
2018-02-10T07:37:54.131Z,60.20
2018-02-10T07:40:23.559Z,60.20
2018-02-10T07:42:53.733Z,60.50
2018-02-10T07:45:23.212Z,60.50
2018-02-10T07:47:53.652Z,60.40
2018-02-10T07:50:23.087Z,60.30
2018-02-10T07:52:52.553Z,60.40
2018-02-10T07:55:22.112Z,60.70
2018-02-10T07:57:51.531Z,60.80
2018-02-10T08:00:21.004Z,60.70
2018-02-10T08:02:50.435Z,60.50
2018-02-10T08:05:20.609Z,60.60
2018-02-10T08:07:50.032Z,60.60
2018-02-10T08:10:19.462Z,60.60
2018-02-10T08:12:48.596Z,61.00
2018-02-10T08:15:18.049Z,60.70
2018-02-10T08:17:47.525Z,60.20
2018-02-10T08:20:16.995Z,60.00
2018-02-10T08:22:46.393Z,60.10
2018-02-10T08:25:15.922Z,60.00
2018-02-10T08:27:45.325Z,60.10
2018-02-10T08:30:14.928Z,60.40
2018-02-10T08:32:44.312Z,60.10
2018-02-10T08:35:14.743Z,60.30
2018-02-10T08:37:47.223Z,60.40
2018-02-10T08:40:17.137Z,60.70
2018-02-10T08:42:46.625Z,61.60
2018-02-10T08:45:16.100Z,60.50
2018-02-10T08:47:45.684Z,60.40
2018-02-10T08:50:15.381Z,60.20
2018-02-10T08:52:45.849Z,60.40
2018-02-10T08:55:15.395Z,60.40
2018-02-10T08:57:46.333Z,60.70
2018-02-10T09:00:15.860Z,60.70
2018-02-10T09:02:44.984Z,60.40
2018-02-10T09:05:14.541Z,60.60
2018-02-10T09:07:43.978Z,60.60
2018-02-10T09:10:13.432Z,60.70
2018-02-10T09:12:43.055Z,60.70
2018-02-10T09:15:12.961Z,61.10
2018-02-10T09:17:42.392Z,61.10
2018-02-10T09:20:11.804Z,61.20
2018-02-10T09:22:43.371Z,61.30
2018-02-10T09:25:13.596Z,61.20
2018-02-10T09:27:43.064Z,61.30
2018-02-10T09:30:12.820Z,61.00
2018-02-10T09:32:42.393Z,61.00
2018-02-10T09:35:12.563Z,61.00
2018-02-10T09:37:42.236Z,61.00
2018-02-10T09:40:12.412Z,60.80
2018-02-10T09:42:41.840Z,60.90
2018-02-10T09:45:11.262Z,61.00
2018-02-10T09:47:40.672Z,61.00
2018-02-10T09:50:10.112Z,60.90
2018-02-10T09:52:39.520Z,61.00
2018-02-10T09:55:10.464Z,61.00
2018-02-10T09:57:39.613Z,60.90
2018-02-10T10:00:09.804Z,61.10
2018-02-10T10:02:39.207Z,61.10
2018-02-10T10:05:08.632Z,60.90
2018-02-10T10:07:38.056Z,60.80
2018-02-10T10:10:07.477Z,60.80
2018-02-10T10:12:36.896Z,60.90
2018-02-10T10:15:06.321Z,61.00
2018-02-10T10:17:35.737Z,61.10
2018-02-10T10:20:05.266Z,61.00
2018-02-10T10:22:35.443Z,61.00
2018-02-10T10:25:06.106Z,60.90
2018-02-10T10:27:35.502Z,60.70
2018-02-10T10:30:05.077Z,61.00
2018-02-10T10:32:35.373Z,60.50
2018-02-10T10:35:04.536Z,60.40
2018-02-10T10:37:34.090Z,60.50
2018-02-10T10:40:03.512Z,60.50
2018-02-10T10:42:32.928Z,60.40
2018-02-10T10:45:02.338Z,60.20
2018-02-10T10:47:31.735Z,60.10
2018-02-10T10:50:01.167Z,60.30
2018-02-10T10:52:30.630Z,60.30
2018-02-10T10:55:00.801Z,61.10
2018-02-10T10:57:30.240Z,60.30
2018-02-10T10:59:59.669Z,60.40
2018-02-10T11:02:29.080Z,60.60
2018-02-10T11:05:01.021Z,60.30
2018-02-10T11:07:30.150Z,60.30
2018-02-10T11:10:01.680Z,60.30
2018-02-10T11:12:31.217Z,60.30
2018-02-10T11:15:00.647Z,60.20
2018-02-10T11:17:30.062Z,60.20
2018-02-10T11:20:00.028Z,60.10
2018-02-10T11:22:29.660Z,60.00
2018-02-10T11:25:00.054Z,59.90
2018-02-10T11:27:29.480Z,60.00
2018-02-10T11:29:58.892Z,60.00
2018-02-10T11:32:28.329Z,60.20
2018-02-10T11:34:58.641Z,60.60
2018-02-10T11:37:28.062Z,60.00
2018-02-10T11:39:58.980Z,60.60
2018-02-10T11:42:28.432Z,60.50
2018-02-10T11:44:57.853Z,60.80
2018-02-10T11:47:27.268Z,61.10
2018-02-10T11:49:56.672Z,60.60
2018-02-10T11:52:26.149Z,61.40
2018-02-10T11:54:55.562Z,61.70
2018-02-10T11:57:24.968Z,61.70
2018-02-10T11:59:54.389Z,61.70
2018-02-10T12:02:23.785Z,62.00
2018-02-10T12:04:53.207Z,62.00
2018-02-10T12:07:23.074Z,62.00
2018-02-10T12:09:52.493Z,62.00
2018-02-10T12:12:21.918Z,62.00
2018-02-10T12:14:51.345Z,61.90
2018-02-10T12:17:20.756Z,61.60
2018-02-10T12:19:49.854Z,61.80
2018-02-10T12:22:20.089Z,62.10
2018-02-10T12:24:49.419Z,62.10
2018-02-10T12:27:18.859Z,62.10
2018-02-10T12:29:49.131Z,62.20
2018-02-10T12:32:18.598Z,62.20
2018-02-10T12:34:48.049Z,62.40
2018-02-10T12:37:17.458Z,62.70
2018-02-10T12:39:46.880Z,62.50
2018-02-10T12:42:16.360Z,62.70
2018-02-10T12:44:45.831Z,62.30
2018-02-10T12:47:15.394Z,62.40
2018-02-10T12:49:44.794Z,62.60
2018-02-10T12:52:14.227Z,62.70
2018-02-10T12:54:43.817Z,62.30
2018-02-10T12:57:13.414Z,61.80
2018-02-10T12:59:42.824Z,61.80
2018-02-10T13:02:12.293Z,61.40
2018-02-10T13:04:41.856Z,61.40
2018-02-10T13:07:11.289Z,62.20
2018-02-10T13:09:40.691Z,62.20
2018-02-10T13:12:09.785Z,62.00
2018-02-10T13:14:39.192Z,62.20
2018-02-10T13:17:08.618Z,62.30
2018-02-10T13:19:38.021Z,62.20
2018-02-10T13:22:08.393Z,62.00
2018-02-10T13:24:37.857Z,62.00
2018-02-10T13:27:08.032Z,61.70
2018-02-10T13:29:37.507Z,61.70
2018-02-10T13:32:06.911Z,61.70
2018-02-10T13:34:36.222Z,61.60
2018-02-10T13:37:05.695Z,61.60
2018-02-10T13:39:35.152Z,61.50
2018-02-10T13:42:04.395Z,61.60
2018-02-10T13:44:34.574Z,61.50
2018-02-10T13:47:04.008Z,61.50
2018-02-10T13:49:34.109Z,61.40
2018-02-10T13:52:03.599Z,61.40
2018-02-10T13:54:32.833Z,61.50
2018-02-10T13:57:02.242Z,61.40
2018-02-10T13:59:31.707Z,61.50
2018-02-10T14:02:01.145Z,61.50
2018-02-10T14:04:31.360Z,61.30
2018-02-10T14:07:00.762Z,61.20
2018-02-10T14:09:30.189Z,61.20
2018-02-10T14:12:00.381Z,61.10
2018-02-10T14:14:29.485Z,61.00
2018-02-10T14:16:58.887Z,61.10
2018-02-10T14:19:28.343Z,61.30
2018-02-10T14:21:57.608Z,61.40
2018-02-10T14:24:26.840Z,61.40
2018-02-10T14:26:56.239Z,61.30
2018-02-10T14:29:25.644Z,60.90
2018-02-10T14:31:55.047Z,60.40
2018-02-10T14:34:25.315Z,59.70
2018-02-10T14:36:55.681Z,59.70
2018-02-10T14:39:25.063Z,59.70
2018-02-10T14:41:54.464Z,59.60
2018-02-10T14:44:23.880Z,59.70
2018-02-10T14:46:53.287Z,59.70
2018-02-10T14:49:22.690Z,59.70
2018-02-10T14:51:52.842Z,59.70
2018-02-10T14:54:22.245Z,59.70
2018-02-10T14:56:52.455Z,59.80
2018-02-10T14:59:21.831Z,59.60
2018-02-10T15:01:51.228Z,59.70
2018-02-10T15:04:20.628Z,59.50
2018-02-10T15:06:50.028Z,59.50
2018-02-10T15:09:20.296Z,59.20
2018-02-10T15:11:49.684Z,59.10
2018-02-10T15:14:19.908Z,58.60
2018-02-10T15:16:50.084Z,58.40
2018-02-10T15:19:19.511Z,58.40
2018-02-10T15:21:48.931Z,58.20
2018-02-10T15:24:18.343Z,58.20
2018-02-10T15:26:47.634Z,58.10
2018-02-10T15:29:17.023Z,57.70
2018-02-10T15:31:57.465Z,57.60
2018-02-10T15:34:35.984Z,57.40
2018-02-10T15:37:05.400Z,57.40
2018-02-10T15:39:36.446Z,57.10
2018-02-10T15:42:05.847Z,57.00
2018-02-10T15:44:35.294Z,56.80
2018-02-10T15:47:04.692Z,56.50
2018-02-10T15:49:33.919Z,56.20
2018-02-10T15:52:03.323Z,56.20
2018-02-10T15:54:32.728Z,55.80
2018-02-10T15:57:02.120Z,55.70
2018-02-10T15:59:31.517Z,55.60
2018-02-10T16:02:01.673Z,55.30
2018-02-10T16:04:31.074Z,55.30
2018-02-10T16:07:00.464Z,55.20
2018-02-10T16:09:30.632Z,55.90
2018-02-10T16:12:00.042Z,55.30
2018-02-10T16:14:29.448Z,55.20
2018-02-10T16:16:58.842Z,55.30
2018-02-10T16:19:29.004Z,55.00
2018-02-10T16:21:58.427Z,55.00
2018-02-10T16:24:27.851Z,54.90
2018-02-10T16:26:57.231Z,54.90
2018-02-10T16:29:26.624Z,55.00
2018-02-10T16:31:56.804Z,55.10
2018-02-10T16:34:26.211Z,54.80
2018-02-10T16:36:55.614Z,54.80
2018-02-10T16:39:24.667Z,54.80
2018-02-10T16:41:54.102Z,54.80
2018-02-10T16:44:23.672Z,55.00
2018-02-10T16:46:53.082Z,54.80
2018-02-10T16:49:22.481Z,55.00
2018-02-10T16:51:51.886Z,54.90
2018-02-10T16:54:22.062Z,54.90
2018-02-10T16:56:51.444Z,54.90
2018-02-10T16:59:20.875Z,54.80
2018-02-10T17:01:50.419Z,54.80
2018-02-10T17:04:19.813Z,54.90
2018-02-10T17:06:49.211Z,54.90
2018-02-10T17:09:18.628Z,54.80
2018-02-10T17:11:48.036Z,55.50
2018-02-10T17:14:17.280Z,54.80
2018-02-10T17:16:46.871Z,54.80
2018-02-10T17:19:16.261Z,54.70
2018-02-10T17:21:46.432Z,54.70
2018-02-10T17:24:15.856Z,54.70
2018-02-10T17:26:45.290Z,54.80
2018-02-10T17:29:14.701Z,54.70
2018-02-10T17:31:44.135Z,54.80
2018-02-10T17:34:13.531Z,54.60
2018-02-10T17:36:42.969Z,54.70
2018-02-10T17:39:12.380Z,54.60
2018-02-10T17:41:41.783Z,54.60
2018-02-10T17:44:11.187Z,54.60
2018-02-10T17:46:40.591Z,54.70
2018-02-10T17:49:09.996Z,54.70
2018-02-10T17:51:39.387Z,54.70
2018-02-10T17:54:09.552Z,54.80
2018-02-10T17:56:38.966Z,54.70
2018-02-10T17:59:08.363Z,54.80
2018-02-10T18:01:37.772Z,54.90
2018-02-10T18:04:07.196Z,55.00
2018-02-10T18:06:36.587Z,55.20
2018-02-10T18:09:06.760Z,55.30
2018-02-10T18:11:36.161Z,55.30
2018-02-10T18:14:05.581Z,55.30
2018-02-10T18:16:34.971Z,55.40
2018-02-10T18:19:05.194Z,55.50
2018-02-10T18:21:35.351Z,55.60
2018-02-10T18:24:04.776Z,55.60
2018-02-10T18:26:34.183Z,55.60
2018-02-10T18:29:03.664Z,55.70
2018-02-10T18:31:33.221Z,55.70
2018-02-10T18:34:02.633Z,55.60
2018-02-10T18:36:32.061Z,55.60
2018-02-10T18:39:01.448Z,55.50
2018-02-10T18:41:30.641Z,55.50
2018-02-10T18:44:00.187Z,55.50
2018-02-10T18:46:29.596Z,55.40
2018-02-10T18:48:59.005Z,55.20
2018-02-10T18:51:29.172Z,55.30
2018-02-10T18:53:58.571Z,55.20
2018-02-10T18:56:28.003Z,55.20
2018-02-10T18:58:57.393Z,55.20
2018-02-10T19:01:26.777Z,55.10
2018-02-10T19:03:56.760Z,55.10
2018-02-10T19:06:26.164Z,55.10
2018-02-10T19:08:55.563Z,55.00
2018-02-10T19:11:24.970Z,54.80
2018-02-10T19:13:54.384Z,54.90
2018-02-10T19:16:23.776Z,54.80
2018-02-10T19:18:53.948Z,54.50
2018-02-10T19:21:23.333Z,54.40
2018-02-10T19:23:53.511Z,54.40
2018-02-10T19:26:22.909Z,54.30
2018-02-10T19:28:52.451Z,54.30
2018-02-10T19:31:21.875Z,54.20
2018-02-10T19:33:51.284Z,54.30
2018-02-10T19:36:20.688Z,54.10
2018-02-10T19:38:50.100Z,54.00
2018-02-10T19:41:19.500Z,54.00
2018-02-10T19:43:48.892Z,53.90
2018-02-10T19:46:18.279Z,53.60
2018-02-10T19:48:47.688Z,53.80
2018-02-10T19:51:17.109Z,53.70
2018-02-10T19:53:46.516Z,53.70
2018-02-10T19:56:17.423Z,53.60
2018-02-10T19:58:46.824Z,53.60
2018-02-10T20:01:16.231Z,53.30
2018-02-10T20:03:45.627Z,53.40
2018-02-10T20:06:15.814Z,53.50
2018-02-10T20:08:45.220Z,53.50
2018-02-10T20:11:14.645Z,53.50
2018-02-10T20:13:44.083Z,53.50
2018-02-10T20:16:13.488Z,53.20
2018-02-10T20:18:42.899Z,53.30
2018-02-10T20:21:12.303Z,53.20
2018-02-10T20:23:42.026Z,53.20
2018-02-10T20:26:11.412Z,53.30
2018-02-10T20:28:40.821Z,53.20
2018-02-10T20:31:11.098Z,53.30
2018-02-10T20:33:40.506Z,53.30
2018-02-10T20:36:09.936Z,53.40
2018-02-10T20:38:39.320Z,53.50
2018-02-10T20:41:08.805Z,53.40
2018-02-10T20:43:38.964Z,53.40
2018-02-10T20:46:08.410Z,53.30
2018-02-10T20:48:37.808Z,53.60
2018-02-10T20:51:07.262Z,53.60
2018-02-10T20:53:36.646Z,53.50
2018-02-10T20:56:06.078Z,53.50
2018-02-10T20:58:35.497Z,53.70
2018-02-10T21:01:04.908Z,53.50
2018-02-10T21:03:34.308Z,53.50
2018-02-10T21:06:03.728Z,53.50
2018-02-10T21:08:33.457Z,53.60
2018-02-10T21:11:02.856Z,53.60
2018-02-10T21:13:32.255Z,53.50
2018-02-10T21:16:01.653Z,53.50
2018-02-10T21:18:31.812Z,53.50
2018-02-10T21:21:01.212Z,53.40
2018-02-10T21:23:30.632Z,53.40
2018-02-10T21:26:00.042Z,53.40
2018-02-10T21:28:29.449Z,53.30
2018-02-10T21:30:59.637Z,53.40
2018-02-10T21:33:29.183Z,53.40
2018-02-10T21:35:59.364Z,53.30
2018-02-10T21:38:28.783Z,53.20
2018-02-10T21:40:58.216Z,53.30
2018-02-10T21:43:27.616Z,53.20
2018-02-10T21:45:57.654Z,53.30
2018-02-10T21:48:27.044Z,53.40
2018-02-10T21:50:56.444Z,53.20
2018-02-10T21:53:25.862Z,53.30
2018-02-10T21:55:55.243Z,53.30
2018-02-10T21:58:25.418Z,53.50
2018-02-10T22:00:54.819Z,53.50
2018-02-10T22:03:24.220Z,53.40
2018-02-10T22:05:54.044Z,53.40
2018-02-10T22:08:24.201Z,53.40
2018-02-10T22:10:53.600Z,53.40
2018-02-10T22:13:22.685Z,53.50
2018-02-10T22:15:52.850Z,54.20
2018-02-10T22:18:22.264Z,53.60
2018-02-10T22:20:51.663Z,53.70
2018-02-10T22:23:21.076Z,53.80
2018-02-10T22:25:51.252Z,53.90
2018-02-10T22:28:20.640Z,54.00
2018-02-10T22:30:50.044Z,54.00
2018-02-10T22:33:19.458Z,54.00
2018-02-10T22:35:48.867Z,54.20
2018-02-10T22:38:19.044Z,54.40
2018-02-10T22:40:48.449Z,54.40
2018-02-10T22:43:17.841Z,54.50
2018-02-10T22:45:47.252Z,54.70
2018-02-10T22:48:16.832Z,54.80
2018-02-10T22:50:47.768Z,55.10
2018-02-10T22:53:17.192Z,55.10
2018-02-10T22:55:46.601Z,55.30
2018-02-10T22:58:16.227Z,55.50
2018-02-10T23:00:45.652Z,55.80
2018-02-10T23:03:16.572Z,56.20
2018-02-10T23:05:45.996Z,56.20
2018-02-10T23:08:15.458Z,56.30
2018-02-10T23:10:45.642Z,56.60
2018-02-10T23:13:15.056Z,56.60
2018-02-10T23:15:44.495Z,56.80
2018-02-10T23:18:13.902Z,57.00
2018-02-10T23:20:43.326Z,57.30
2018-02-10T23:23:12.860Z,57.60
2018-02-10T23:25:42.336Z,57.80
2018-02-10T23:28:11.790Z,57.90
2018-02-10T23:30:41.188Z,58.00
2018-02-10T23:33:10.601Z,58.60
2018-02-10T23:35:40.009Z,58.20
2018-02-10T23:38:09.407Z,58.60
2018-02-10T23:40:38.819Z,58.50
2018-02-10T23:43:08.326Z,58.70
2018-02-10T23:45:37.752Z,58.90
2018-02-10T23:48:07.167Z,59.20
2018-02-10T23:50:36.564Z,59.30
2018-02-10T23:53:05.994Z,59.60
2018-02-10T23:55:35.215Z,59.50
2018-02-10T23:58:04.612Z,59.90
